Time;durP1;ratioP1;P1;durP2;ratioP2;P2;SDS_P1;SDS_P2;PMS_P1;PMS_P2;Temp;Humidity;BMP_temperature;BMP_pressure;BME280_temperature;BME280_humidity;BME280_pressure;Samples;Min_cycle;Max_cycle;Signal;HPM_P1;HPM_P2
2021/11/03 00:00:26;;;;;;;3.25;2.78;;;;;;;1.05;100.00;91640.97;2049754;29;20118;-89
2021/11/03 00:01:31;;;;;;;3.70;3.00;;;;;;;1.07;100.00;91636.06;2042289;28;20027;-88
2021/11/03 00:02:33;;;;;;;3.95;2.63;;;;;;;1.13;100.00;91639.75;2035018;29;20119;-89
2021/11/03 00:03:34;;;;;;;4.80;3.20;;;;;;;1.07;100.00;91639.44;2034809;28;20103;-89
2021/11/03 00:04:36;;;;;;;3.67;2.90;;;;;;;1.02;100.00;91647.78;2050264;28;20086;-90
2021/11/03 00:05:45;;;;;;;4.43;2.92;;;;;;;1.11;100.00;91645.44;2050059;28;20035;-89
2021/11/03 00:06:46;;;;;;;2.55;2.35;;;;;;;1.11;100.00;91648.06;2050683;28;20031;-88
2021/11/03 00:07:47;;;;;;;5.07;2.80;;;;;;;1.05;100.00;91648.84;2048877;28;20046;-88
2021/11/03 00:08:49;;;;;;;3.47;2.92;;;;;;;1.06;100.00;91647.75;2057912;28;20050;-90
2021/11/03 00:09:50;;;;;;;3.28;2.95;;;;;;;1.02;100.00;91652.28;2066021;28;20022;-88
2021/11/03 00:10:52;;;;;;;5.38;2.50;;;;;;;1.14;100.00;91642.03;2058234;28;20074;-89
2021/11/03 00:11:53;;;;;;;3.50;2.88;;;;;;;1.06;100.00;91647.75;2074363;28;20049;-88
2021/11/03 00:12:54;;;;;;;3.05;2.75;;;;;;;1.12;100.00;91651.44;2071376;28;20036;-89
2021/11/03 00:13:55;;;;;;;3.78;2.85;;;;;;;1.14;100.00;91651.78;2066016;28;20018;-88
2021/11/03 00:14:57;;;;;;;3.65;2.53;;;;;;;1.10;100.00;91641.31;2073952;28;20042;-89
2021/11/03 00:15:58;;;;;;;4.07;2.75;;;;;;;1.25;100.00;91640.00;2065804;28;20026;-88
2021/11/03 00:16:59;;;;;;;4.50;2.85;;;;;;;1.20;100.00;91640.44;2058023;28;20022;-89
2021/11/03 00:18:00;;;;;;;3.65;2.70;;;;;;;1.19;100.00;91638.22;2057778;28;20384;-89
2021/11/03 00:19:01;;;;;;;3.95;2.65;;;;;;;1.18;100.00;91642.69;2049987;28;20491;-88
2021/11/03 00:20:03;;;;;;;4.50;2.70;;;;;;;1.20;100.00;91637.81;2049843;28;20031;-89
2021/11/03 00:21:06;;;;;;;4.88;2.60;;;;;;;1.23;100.00;91629.13;2053203;28;20494;-88
2021/11/03 00:22:07;;;;;;;3.30;2.97;;;;;;;1.27;100.00;91634.34;2063255;28;20045;-89
2021/11/03 00:23:08;;;;;;;3.50;2.60;;;;;;;1.24;100.00;91632.50;2056938;28;20037;-89
2021/11/03 00:24:09;;;;;;;3.80;2.65;;;;;;;1.30;100.00;91635.44;2057268;28;20754;-88
2021/11/03 00:25:10;;;;;;;3.80;2.50;;;;;;;1.28;100.00;91635.84;2049822;28;20034;-89
2021/11/03 00:26:11;;;;;;;5.97;2.70;;;;;;;1.32;100.00;91633.16;2049788;28;20532;-89
2021/11/03 00:27:13;;;;;;;4.05;2.35;;;;;;;1.30;100.00;91628.28;2057640;28;20034;-89
2021/11/03 00:28:16;;;;;;;4.30;2.58;;;;;;;1.33;100.00;91629.41;2065927;28;20081;-89
2021/11/03 00:29:17;;;;;;;5.20;2.50;;;;;;;1.36;100.00;91632.00;2066115;28;20044;-89
2021/11/03 00:30:19;;;;;;;3.85;2.30;;;;;;;1.45;100.00;91627.00;2065843;28;20514;-89
2021/11/03 00:31:20;;;;;;;2.58;2.28;;;;;;;1.47;100.00;91616.81;2066177;28;20030;-88
2021/11/03 00:32:21;;;;;;;3.55;2.80;;;;;;;1.50;100.00;91613.41;2073769;28;20028;-91
2021/11/03 00:33:24;;;;;;;5.00;2.53;;;;;;;1.54;100.00;91608.09;2073994;28;20104;-89
2021/11/03 00:34:25;;;;;;;5.90;2.78;;;;;;;1.46;100.00;91611.94;2073369;28;20034;-88
2021/11/03 00:35:27;;;;;;;2.90;2.63;;;;;;;1.51;100.00;91614.13;2057853;28;20502;-88
2021/11/03 00:36:28;;;;;;;3.60;2.67;;;;;;;1.51;100.00;91614.88;2065907;28;20026;-91
2021/11/03 00:37:29;;;;;;;4.93;2.78;;;;;;;1.50;100.00;91605.50;2057964;28;20023;-91
2021/11/03 00:38:30;;;;;;;3.72;2.42;;;;;;;1.58;100.00;91600.91;2073899;28;20785;-90
2021/11/03 00:39:31;;;;;;;2.72;2.53;;;;;;;1.56;100.00;91608.44;2074007;28;20109;-89
2021/11/03 00:40:33;;;;;;;3.50;2.42;;;;;;;1.58;100.00;91595.63;2065833;28;20105;-89
2021/11/03 00:41:34;;;;;;;2.72;2.40;;;;;;;1.53;100.00;91596.03;2057840;28;20026;-91
2021/11/03 00:42:36;;;;;;;2.55;2.35;;;;;;;1.56;100.00;91603.16;2057817;28;20425;-87
2021/11/03 00:43:37;;;;;;;2.92;2.47;;;;;;;1.59;100.00;91602.38;2050256;28;20034;-89
2021/11/03 00:44:38;;;;;;;2.92;2.55;;;;;;;1.53;100.00;91596.03;2057517;28;20031;-90
2021/11/03 00:45:39;;;;;;;3.65;2.47;;;;;;;1.50;100.00;91600.22;2049690;28;20115;-89
2021/11/03 00:46:40;;;;;;;3.42;2.40;;;;;;;1.51;100.00;91600.97;2044539;28;21772;-92
2021/11/03 00:47:41;;;;;;;4.50;2.42;;;;;;;1.45;100.00;91605.94;2065016;28;20037;-89
2021/11/03 00:48:42;;;;;;;5.53;2.20;;;;;;;1.46;100.00;91594.25;2064988;28;20019;-89
2021/11/03 00:49:43;;;;;;;5.50;3.10;;;;;;;1.47;100.00;91600.28;2049891;28;20058;-89
2021/11/03 00:50:46;;;;;;;6.15;2.80;;;;;;;1.52;100.00;91591.94;2049626;28;20393;-90
2021/11/03 00:51:47;;;;;;;2.97;2.50;;;;;;;1.56;100.00;91591.88;2050126;28;20169;-89
2021/11/03 00:52:48;;;;;;;3.63;2.70;;;;;;;1.56;100.00;91591.88;2057281;28;20097;-89
2021/11/03 00:53:49;;;;;;;3.70;2.85;;;;;;;1.51;100.00;91591.19;2053979;28;20034;-90
2021/11/03 00:54:50;;;;;;;2.83;2.30;;;;;;;1.52;100.00;91586.66;2057747;28;20026;-91
2021/11/03 00:55:51;;;;;;;4.00;2.60;;;;;;;1.49;100.00;91588.22;2057489;28;20110;-90
2021/11/03 00:56:52;;;;;;;3.22;2.92;;;;;;;1.62;100.00;91580.50;2049830;28;20119;-88
2021/11/03 00:57:54;;;;;;;5.35;3.42;;;;;;;1.72;100.00;91584.91;2049547;28;20039;-90
2021/11/03 00:58:55;;;;;;;4.57;2.65;;;;;;;1.76;100.00;91596.13;2049783;28;20552;-91
2021/11/03 00:59:56;;;;;;;4.03;3.30;;;;;;;2.00;100.00;91593.53;2049747;28;20027;-91
2021/11/03 01:00:57;;;;;;;3.55;3.20;;;;;;;1.97;100.00;91589.06;2049584;28;20027;-88
2021/11/03 01:01:58;;;;;;;3.30;3.00;;;;;;;1.91;100.00;91586.13;2065750;28;20030;-92
2021/11/03 01:02:59;;;;;;;3.72;2.90;;;;;;;1.91;100.00;91582.75;2073729;28;20026;-89
2021/11/03 01:04:00;;;;;;;4.50;3.25;;;;;;;1.88;100.00;91592.19;2073767;28;20049;-90
2021/11/03 01:05:02;;;;;;;4.30;2.95;;;;;;;1.84;100.00;91596.75;2065469;28;20137;-91
2021/11/03 01:06:03;;;;;;;3.95;2.97;;;;;;;1.91;100.00;91575.59;2057982;28;20027;-88
2021/11/03 01:07:04;;;;;;;4.00;3.08;;;;;;;1.88;100.00;91594.81;2065357;28;20026;-87
2021/11/03 01:08:07;;;;;;;4.60;3.47;;;;;;;1.81;100.00;91608.09;2065250;28;20029;-91
2021/11/03 01:09:08;;;;;;;4.07;3.60;;;;;;;1.83;100.00;91590.00;2057392;28;20058;-89
2021/11/03 01:10:11;;;;;;;4.32;3.50;;;;;;;1.94;100.00;91574.81;2041630;28;20118;-90
2021/11/03 01:11:12;;;;;;;5.88;3.33;;;;;;;1.93;100.00;91599.66;2057556;28;20057;-90
2021/11/03 01:12:13;;;;;;;5.68;3.80;;;;;;;1.95;100.00;91596.63;2049289;28;20031;-91
2021/11/03 01:13:16;;;;;;;3.95;3.55;;;;;;;2.03;100.00;91599.91;2041528;28;20028;-88
2021/11/03 01:14:17;;;;;;;4.22;3.83;;;;;;;2.02;100.00;91607.06;2057721;28;21031;-89
2021/11/03 01:15:22;;;;;;;4.22;3.50;;;;;;;2.03;100.00;91586.75;2065436;28;20058;-88
2021/11/03 01:16:23;;;;;;;3.40;3.03;;;;;;;2.07;100.00;91582.16;2049519;28;20019;-91
2021/11/03 01:17:24;;;;;;;4.78;3.78;;;;;;;2.05;100.00;91598.34;2049441;28;20098;-91
2021/11/03 01:18:27;;;;;;;4.38;3.13;;;;;;;2.09;100.00;91583.22;2057510;28;20046;-89
2021/11/03 01:19:28;;;;;;;4.47;3.42;;;;;;;2.05;100.00;91585.19;2057363;28;20050;-90
2021/11/03 01:20:30;;;;;;;4.30;3.90;;;;;;;2.01;100.00;91595.03;2065330;28;20023;-90
2021/11/03 01:21:32;;;;;;;4.03;3.58;;;;;;;2.03;100.00;91599.91;2073369;28;20032;-88
2021/11/03 01:22:33;;;;;;;4.70;3.10;;;;;;;2.04;100.00;91596.13;2065264;28;20022;-90
2021/11/03 01:23:35;;;;;;;5.38;3.67;;;;;;;2.10;100.00;91589.25;2057240;28;20058;-88
2021/11/03 01:24:36;;;;;;;5.32;3.72;;;;;;;2.10;100.00;91591.88;2049613;28;20079;-89
2021/11/03 01:25:38;;;;;;;4.55;3.33;;;;;;;2.10;100.00;91595.25;2049357;28;20027;-90
2021/11/03 01:26:39;;;;;;;4.70;3.80;;;;;;;2.09;100.00;91591.13;2049756;28;20089;-90
2021/11/03 01:27:40;;;;;;;5.13;3.45;;;;;;;2.08;100.00;91594.19;2049373;28;20118;-91
2021/11/03 01:28:41;;;;;;;3.80;3.40;;;;;;;2.10;100.00;91586.63;2057496;28;20459;-90
2021/11/03 01:29:42;;;;;;;3.97;3.42;;;;;;;2.14;100.00;91582.03;2065289;28;20412;-90
2021/11/03 01:30:45;;;;;;;4.55;3.47;;;;;;;2.14;100.00;91566.97;2057450;28;20046;-88
2021/11/03 01:31:46;;;;;;;4.20;3.28;;;;;;;2.17;100.00;91573.34;2057106;28;20106;-88
2021/11/03 01:32:48;;;;;;;4.30;3.28;;;;;;;2.25;100.00;91575.47;2049172;28;20123;-88
2021/11/03 01:33:49;;;;;;;3.28;2.97;;;;;;;2.21;100.00;91580.03;2049433;29;20391;-90
2021/11/03 01:34:50;;;;;;;6.00;3.47;;;;;;;2.20;100.00;91580.44;2064865;28;20034;-89
2021/11/03 01:35:51;;;;;;;4.22;3.20;;;;;;;2.41;100.00;91581.97;2065398;28;20254;-88
2021/11/03 01:36:52;;;;;;;3.30;3.00;;;;;;;2.40;100.00;91578.59;2065266;28;20030;-90
2021/11/03 01:37:56;;;;;;;3.20;2.90;;;;;;;2.33;100.00;91576.09;2049264;29;20357;-88
2021/11/03 01:38:57;;;;;;;4.95;2.95;;;;;;;2.32;100.00;91574.59;2049683;28;20038;-88
2021/11/03 01:39:58;;;;;;;4.22;3.00;;;;;;;2.38;100.00;91580.16;2041577;29;20024;-90
2021/11/03 01:40:59;;;;;;;3.58;3.28;;;;;;;2.23;100.00;91569.84;2057157;28;20122;-88
2021/11/03 01:42:00;;;;;;;3.95;3.13;;;;;;;2.29;100.00;91567.50;2057185;28;20034;-89
2021/11/03 01:43:04;;;;;;;3.58;3.28;;;;;;;2.27;100.00;91573.16;2049389;28;20032;-90
2021/11/03 01:44:12;;;;;;;5.25;3.47;;;;;;;2.38;100.00;91565.09;2049419;28;20473;-90
2021/11/03 01:45:15;;;;;;;4.10;2.80;;;;;;;2.36;100.00;91572.66;2050785;28;20039;-88
2021/11/03 01:46:29;;;;;;;3.90;3.30;;;;;;;2.28;100.00;91566.00;2049681;28;20355;-90
2021/11/03 01:47:49;;;;;;;5.43;3.13;;;;;;;2.26;100.00;91565.66;2063397;28;20030;-90
2021/11/03 01:48:54;;;;;;;;;;;;;;;2.25;100.00;91561.53;2065584;28;20029;-90
2021/11/03 01:49:54;;;;;;;2.83;2.38;;;;;;;2.31;100.00;91567.09;2065361;28;19917;-91
2021/11/03 01:50:56;;;;;;;3.25;2.75;;;;;;;2.44;100.00;91568.00;2049229;28;20089;-91
2021/11/03 01:52:10;;;;;;;3.20;2.90;;;;;;;2.37;100.00;91563.63;2057396;28;20033;-89
2021/11/03 01:53:21;;;;;;;3.20;2.88;;;;;;;2.30;100.00;91563.72;2058835;28;20077;-90
2021/11/03 01:54:28;;;;;;;3.58;2.80;;;;;;;2.37;100.00;91562.84;2050536;28;20050;-91
2021/11/03 01:55:30;;;;;;;3.80;3.50;;;;;;;2.26;100.00;91558.50;2057175;28;20048;-90
2021/11/03 01:56:32;;;;;;;4.55;3.40;;;;;;;2.34;100.00;91574.94;2057407;28;20023;-90
2021/11/03 01:57:38;;;;;;;3.47;3.17;;;;;;;2.37;100.00;91573.38;2073162;28;20022;-90
2021/11/03 01:58:45;;;;;;;3.70;3.40;;;;;;;2.28;100.00;91579.19;2057194;28;20078;-89
2021/11/03 01:59:51;;;;;;;4.20;3.75;;;;;;;2.21;100.00;91563.50;2057626;28;20030;-90
2021/11/03 02:00:54;;;;;;;4.15;2.92;;;;;;;2.26;100.00;91563.03;2065821;28;20029;-90
2021/11/03 02:01:56;;;;;;;4.10;3.42;;;;;;;2.29;100.00;91559.59;2056918;28;20101;-89
2021/11/03 02:03:07;;;;;;;3.85;3.55;;;;;;;2.24;100.00;91562.69;2049237;28;20023;-92
2021/11/03 02:04:08;;;;;;;4.43;3.38;;;;;;;2.43;100.00;91561.25;2050428;28;20472;-89
2021/11/03 02:05:12;;;;;;;6.25;3.75;;;;;;;2.39;100.00;91561.31;2049237;28;20095;-88
2021/11/03 02:06:19;;;;;;;4.97;3.33;;;;;;;2.65;100.00;91562.38;2042067;28;20497;-91
2021/11/03 02:07:24;;;;;;;4.22;3.22;;;;;;;2.48;100.00;91561.53;2050471;28;20059;-89
2021/11/03 02:08:28;;;;;;;4.75;3.28;;;;;;;2.43;100.00;91555.97;2057584;28;20023;-90
2021/11/03 02:09:29;;;;;;;6.00;3.33;;;;;;;2.38;100.00;91557.19;2057588;28;20138;-88
2021/11/03 02:10:30;;;;;;;4.18;3.28;;;;;;;2.38;100.00;91553.81;2057062;28;20031;-89
2021/11/03 02:11:31;;;;;;;4.07;3.58;;;;;;;2.37;100.00;91553.06;2057291;28;20046;-89
2021/11/03 02:12:33;;;;;;;3.50;3.20;;;;;;;2.37;100.00;91549.66;2065240;28;20498;-91
2021/11/03 02:13:36;;;;;;;6.47;3.75;;;;;;;2.48;100.00;91550.97;2066456;28;20042;-88
2021/11/03 02:14:38;;;;;;;4.47;2.92;;;;;;;2.47;100.00;91546.13;2065184;28;20097;-89
2021/11/03 02:15:42;;;;;;;3.92;3.20;;;;;;;2.44;100.00;91547.66;2064970;28;20027;-91
2021/11/03 02:16:47;;;;;;;3.72;3.42;;;;;;;2.38;100.00;91541.38;2049022;29;20058;-91
2021/11/03 02:17:48;;;;;;;8.57;3.53;;;;;;;2.41;100.00;91539.81;2042216;28;20032;-90
2021/11/03 02:18:50;;;;;;;3.85;3.40;;;;;;;2.48;100.00;91542.31;2041145;29;20023;-90
2021/11/03 02:19:54;;;;;;;4.50;3.72;;;;;;;2.48;100.00;91543.06;2049428;28;20079;-89
2021/11/03 02:20:55;;;;;;;4.10;3.28;;;;;;;2.60;100.00;91543.63;2048930;29;20023;-89
2021/11/03 02:22:02;;;;;;;4.38;3.60;;;;;;;2.60;100.00;91546.28;2041374;28;20114;-90
2021/11/03 02:23:31;;;;;;;5.95;3.60;;;;;;;2.77;100.00;91539.94;2041861;29;20031;-90
2021/11/03 02:24:43;;;;;;;4.18;3.60;;;;;;;2.56;100.00;91532.41;2048637;28;20531;-90
2021/11/03 02:25:48;;;;;;;4.13;3.42;;;;;;;2.68;100.00;91529.91;2050482;28;20038;-91
2021/11/03 02:26:50;;;;;;;5.93;3.58;;;;;;;2.61;100.00;91529.28;2057492;28;20023;-90
2021/11/03 02:27:55;;;;;;;4.53;3.63;;;;;;;2.58;100.00;91536.13;2056727;28;20034;-90
2021/11/03 02:28:58;;;;;;;4.68;3.92;;;;;;;2.53;100.00;91526.03;2057454;28;20026;-89
2021/11/03 02:29:59;;;;;;;3.65;3.35;;;;;;;2.50;100.00;91527.59;2048970;28;20055;-89
2021/11/03 02:31:00;;;;;;;4.20;3.25;;;;;;;2.53;100.00;91534.69;2041019;29;20035;-89
2021/11/03 02:32:21;;;;;;;6.80;4.28;;;;;;;2.52;100.00;91527.19;2049130;28;20567;-90
2021/11/03 02:33:25;;;;;;;4.97;3.40;;;;;;;2.76;100.00;91522.59;2051516;28;20476;-90
2021/11/03 02:34:29;;;;;;;3.75;3.45;;;;;;;2.89;100.00;91522.75;2041266;29;20031;-90
2021/11/03 02:35:30;;;;;;;6.43;3.78;;;;;;;2.95;100.00;91535.06;2042021;28;20180;-89
2021/11/03 02:36:32;;;;;;;5.60;3.63;;;;;;;2.87;100.00;91525.78;2057046;28;20034;-89
2021/11/03 02:37:40;;;;;;;3.95;3.65;;;;;;;2.72;100.00;91530.59;2049044;29;20449;-89
2021/11/03 02:38:42;;;;;;;3.42;3.13;;;;;;;2.63;100.00;91521.72;2045891;28;20028;-90
2021/11/03 02:39:51;;;;;;;4.72;3.63;;;;;;;2.62;100.00;91517.59;2065047;28;20026;-89
2021/11/03 02:40:58;;;;;;;4.88;3.70;;;;;;;2.67;100.00;91527.66;2056874;28;20027;-89
2021/11/03 02:41:59;;;;;;;3.40;3.03;;;;;;;2.62;100.00;91520.97;2050656;28;20480;-89
2021/11/03 02:43:23;;;;;;;4.93;3.75;;;;;;;2.74;100.00;91523.00;2056456;28;20030;-90
2021/11/03 02:44:26;;;;;;;3.38;3.08;;;;;;;2.78;100.00;91525.59;2051954;28;20370;-89
2021/11/03 02:45:37;;;;;;;5.10;3.15;;;;;;;2.77;100.00;91516.94;2049764;28;20023;-90
2021/11/03 02:46:38;;;;;;;4.47;3.38;;;;;;;2.67;100.00;91514.47;2058377;28;20102;-88
2021/11/03 02:47:39;;;;;;;3.95;3.22;;;;;;;2.71;100.00;91518.53;2056991;28;20045;-92
2021/11/03 02:48:42;;;;;;;6.40;3.40;;;;;;;2.63;100.00;91509.25;2048936;29;20019;-89
2021/11/03 02:49:43;;;;;;;6.22;3.95;;;;;;;2.56;100.00;91524.50;2049119;28;20031;-90
2021/11/03 02:51:08;;;;;;;7.15;3.70;;;;;;;2.62;100.00;91520.22;2057147;28;20053;-89
2021/11/03 02:52:15;;;;;;;9.25;3.65;;;;;;;2.64;100.00;91516.06;2056854;28;20093;-88
2021/11/03 02:53:16;;;;;;;6.65;3.80;;;;;;;2.64;100.00;91513.41;2049767;28;20061;-90
2021/11/03 02:54:21;;;;;;;4.03;3.63;;;;;;;2.63;100.00;91514.53;2048934;28;20093;-90
2021/11/03 02:55:23;;;;;;;4.20;3.72;;;;;;;2.88;100.00;91511.44;2049426;28;20058;-89
2021/11/03 02:56:27;;;;;;;3.80;3.35;;;;;;;2.78;100.00;91515.03;2057015;28;20031;-89
2021/11/03 02:57:28;;;;;;;5.75;3.72;;;;;;;2.82;100.00;91518.34;2049224;28;20409;-90
2021/11/03 02:58:29;;;;;;;5.30;3.63;;;;;;;2.76;100.00;91504.88;2056999;28;20038;-89
2021/11/03 02:59:30;;;;;;;5.05;3.53;;;;;;;2.64;100.00;91504.75;2056772;28;20151;-90
2021/11/03 03:00:31;;;;;;;5.03;3.90;;;;;;;2.66;100.00;91505.09;2041149;28;20043;-88
2021/11/03 03:01:41;;;;;;;4.78;3.38;;;;;;;2.66;100.00;91502.44;2040964;28;20024;-89
2021/11/03 03:02:42;;;;;;;3.85;3.42;;;;;;;2.63;100.00;91505.88;2059211;28;20034;-89
2021/11/03 03:03:45;;;;;;;3.80;3.35;;;;;;;2.71;100.00;91501.97;2056904;28;20050;-90
2021/11/03 03:04:52;;;;;;;8.50;4.28;;;;;;;2.67;100.00;91496.03;2049463;28;20185;-89
2021/11/03 03:06:00;;;;;;;4.32;3.55;;;;;;;2.63;100.00;91500.59;2057888;28;20035;-88
2021/11/03 03:07:01;;;;;;;7.75;4.03;;;;;;;2.63;100.00;91497.97;2051599;28;20023;-88
2021/11/03 03:08:03;;;;;;;4.13;3.47;;;;;;;2.66;100.00;91490.00;2064695;28;20022;-90
2021/11/03 03:09:06;;;;;;;4.22;3.85;;;;;;;2.67;100.00;91494.13;2065054;28;20024;-88
2021/11/03 03:10:07;;;;;;;4.35;3.95;;;;;;;2.68;100.00;91500.16;2056586;28;20053;-88
2021/11/03 03:11:08;;;;;;;4.50;3.47;;;;;;;2.62;100.00;91491.22;2041225;28;20051;-90
2021/11/03 03:12:11;;;;;;;4.57;3.85;;;;;;;2.66;100.00;91495.28;2042226;29;20028;-88
2021/11/03 03:13:12;;;;;;;4.88;3.90;;;;;;;2.65;100.00;91493.78;2050239;29;20027;-88
2021/11/03 03:14:14;;;;;;;4.63;3.70;;;;;;;2.65;100.00;91491.16;2042476;28;20032;-88
2021/11/03 03:15:15;;;;;;;4.88;3.80;;;;;;;2.77;100.00;91485.28;2050507;28;20031;-88
2021/11/03 03:16:21;;;;;;;5.38;3.75;;;;;;;2.84;100.00;91488.91;2042489;29;20879;-89
2021/11/03 03:17:22;;;;;;;4.22;3.83;;;;;;;2.77;100.00;91503.75;2043506;28;20026;-90
2021/11/03 03:18:23;;;;;;;4.07;3.67;;;;;;;2.71;100.00;91492.16;2042416;28;20449;-89
2021/11/03 03:19:24;;;;;;;4.30;3.88;;;;;;;2.71;100.00;91486.88;2050544;28;20023;-89
2021/11/03 03:20:25;;;;;;;4.50;3.75;;;;;;;2.71;100.00;91488.78;2058236;28;20027;-90
2021/11/03 03:21:27;;;;;;;3.92;3.60;;;;;;;2.83;100.00;91487.44;2058401;28;20019;-88
2021/11/03 03:22:28;;;;;;;6.68;4.10;;;;;;;2.76;100.00;91491.69;2050419;28;20023;-88
2021/11/03 03:23:29;;;;;;;4.43;3.83;;;;;;;2.72;100.00;91490.25;2050441;28;20031;-89
2021/11/03 03:24:31;;;;;;;4.05;3.60;;;;;;;2.73;100.00;91486.50;2042562;29;20147;-89
2021/11/03 03:25:33;;;;;;;5.43;4.00;;;;;;;2.77;100.00;91485.28;2042390;28;20024;-89
2021/11/03 03:26:35;;;;;;;4.88;4.03;;;;;;;2.82;100.00;91486.69;2042787;28;20502;-89
2021/11/03 03:27:36;;;;;;;4.93;4.13;;;;;;;3.02;100.00;91494.59;2050633;28;20034;-90
2021/11/03 03:28:37;;;;;;;4.45;3.63;;;;;;;2.93;100.00;91491.75;2058300;28;20402;-88
2021/11/03 03:29:39;;;;;;;5.82;3.47;;;;;;;3.10;100.00;91485.38;2058272;28;20026;-89
2021/11/03 03:30:40;;;;;;;4.35;3.95;;;;;;;3.09;100.00;91491.06;2058145;28;20026;-87
2021/11/03 03:31:41;;;;;;;4.88;4.10;;;;;;;3.00;100.00;91499.53;2042513;28;20051;-89
2021/11/03 03:32:42;;;;;;;4.95;3.70;;;;;;;3.02;100.00;91494.59;2042352;28;20027;-87
2021/11/03 03:33:47;;;;;;;4.20;3.80;;;;;;;3.21;100.00;91495.75;2058054;28;20030;-89
2021/11/03 03:34:48;;;;;;;7.35;4.00;;;;;;;2.96;100.00;91490.94;2058287;28;20054;-87
2021/11/03 03:35:49;;;;;;;5.97;3.75;;;;;;;2.86;100.00;91497.94;2058164;28;20026;-89
2021/11/03 03:36:51;;;;;;;4.28;3.88;;;;;;;2.82;100.00;91493.88;2066404;28;20431;-89
2021/11/03 03:37:52;;;;;;;5.10;4.40;;;;;;;2.83;100.00;91492.72;2058612;28;20378;-89
2021/11/03 03:38:55;;;;;;;5.22;4.05;;;;;;;2.80;100.00;91496.16;2050152;28;20027;-89
2021/11/03 03:39:56;;;;;;;4.32;3.92;;;;;;;2.87;100.00;91494.13;2050524;28;20030;-87
2021/11/03 03:40:57;;;;;;;4.70;3.97;;;;;;;2.84;100.00;91505.50;2058122;28;20411;-89
2021/11/03 03:42:05;;;;;;;6.25;4.20;;;;;;;2.84;100.00;91497.56;2058281;28;20611;-86
2021/11/03 03:43:07;;;;;;;5.00;4.25;;;;;;;2.97;100.00;91493.16;2055678;28;20081;-87
2021/11/03 03:44:08;;;;;;;4.22;3.83;;;;;;;2.91;100.00;91491.44;2058250;28;20053;-88
2021/11/03 03:45:10;;;;;;;4.60;4.05;;;;;;;2.85;100.00;91485.88;2057807;28;20484;-89
2021/11/03 03:46:14;;;;;;;5.68;4.38;;;;;;;2.95;100.00;91484.19;2042509;28;20047;-89
2021/11/03 03:47:15;;;;;;;6.60;4.55;;;;;;;3.05;100.00;91488.50;2049973;29;20828;-88
2021/11/03 03:48:16;;;;;;;5.03;3.95;;;;;;;2.87;100.00;91480.19;2034407;29;20080;-90
2021/11/03 03:49:18;;;;;;;5.68;3.63;;;;;;;2.91;100.00;91486.91;2034292;29;20135;-90
2021/11/03 03:50:18;;;;;;;5.57;4.47;;;;;;;2.76;100.00;91483.03;2042264;29;20032;-89
2021/11/03 03:51:21;;;;;;;5.35;4.05;;;;;;;2.75;100.00;91482.28;2034482;29;20028;-87
2021/11/03 03:52:22;;;;;;;7.88;4.63;;;;;;;2.74;100.00;91480.81;2057926;28;20026;-88
2021/11/03 03:53:23;;;;;;;4.93;4.47;;;;;;;2.74;100.00;91485.34;2050276;29;20110;-87
2021/11/03 03:54:25;;;;;;;6.57;4.45;;;;;;;2.71;100.00;91481.59;2034584;29;20027;-88
2021/11/03 03:55:27;;;;;;;4.93;4.43;;;;;;;2.76;100.00;91480.38;2034635;29;20421;-88
2021/11/03 03:56:28;;;;;;;4.80;4.35;;;;;;;2.79;100.00;91482.22;2050355;28;20086;-89
2021/11/03 03:57:29;;;;;;;8.35;4.22;;;;;;;2.77;100.00;91484.53;2057918;28;20023;-90
2021/11/03 03:58:30;;;;;;;4.60;4.00;;;;;;;2.76;100.00;91483.03;2055130;28;20027;-90
2021/11/03 03:59:31;;;;;;;5.63;4.65;;;;;;;2.74;100.00;91480.81;2057996;28;20468;-88
2021/11/03 04:00:33;;;;;;;7.25;4.72;;;;;;;2.84;100.00;91478.38;2057998;28;20030;-89
2021/11/03 04:01:33;;;;;;;6.30;4.63;;;;;;;2.92;100.00;91482.34;2066187;28;20719;-87
2021/11/03 04:02:35;;;;;;;6.43;4.25;;;;;;;2.91;100.00;91478.97;2066033;28;20466;-88
2021/11/03 04:03:36;;;;;;;6.47;4.35;;;;;;;2.86;100.00;91476.81;2050121;28;20163;-88
2021/11/03 04:04:37;;;;;;;4.68;4.20;;;;;;;2.86;100.00;91482.09;2042114;28;20075;-89
2021/11/03 04:05:38;;;;;;;6.25;4.38;;;;;;;2.80;100.00;91475.78;2042194;29;20031;-88
2021/11/03 04:06:39;;;;;;;7.75;5.13;;;;;;;2.88;100.00;91471.13;2050075;28;20059;-88
2021/11/03 04:07:40;;;;;;;4.30;3.90;;;;;;;2.96;100.00;91475.13;2048181;28;20134;-89
2021/11/03 04:08:42;;;;;;;7.65;4.15;;;;;;;3.02;100.00;91466.31;2058022;28;20052;-87
2021/11/03 04:09:43;;;;;;;6.90;4.35;;;;;;;3.00;100.00;91471.25;2058010;28;20973;-88
2021/11/03 04:10:43;;;;;;;4.55;4.15;;;;;;;2.95;100.00;91469.09;2057983;28;20030;-87
2021/11/03 04:11:44;;;;;;;4.50;4.03;;;;;;;2.93;100.00;91466.09;2057935;28;20487;-90
2021/11/03 04:12:46;;;;;;;4.78;3.80;;;;;;;2.94;100.00;91466.84;2057986;28;20049;-90
2021/11/03 04:13:47;;;;;;;6.32;4.47;;;;;;;2.85;100.00;91472.69;2050230;28;20027;-88
2021/11/03 04:14:48;;;;;;;4.43;3.85;;;;;;;2.86;100.00;91466.28;2042270;28;20379;-89
2021/11/03 04:15:50;;;;;;;4.25;3.83;;;;;;;2.88;100.00;91471.88;2049439;28;20045;-90
2021/11/03 04:16:51;;;;;;;6.03;4.35;;;;;;;2.86;100.00;91466.28;2057910;28;20074;-89
2021/11/03 04:17:52;;;;;;;5.30;4.03;;;;;;;2.86;100.00;91476.09;2049711;28;20027;-89
2021/11/03 04:18:53;;;;;;;4.60;4.20;;;;;;;2.96;100.00;91472.47;2050021;28;20034;-89
2021/11/03 04:19:54;;;;;;;5.10;4.60;;;;;;;2.93;100.00;91475.91;2050046;28;20027;-89
2021/11/03 04:20:55;;;;;;;5.93;4.43;;;;;;;2.91;100.00;91473.69;2057833;28;20023;-88
2021/11/03 04:21:56;;;;;;;4.38;3.97;;;;;;;2.88;100.00;91479.78;2057771;28;20496;-88
2021/11/03 04:23:00;;;;;;;4.18;3.70;;;;;;;2.80;100.00;91480.31;2057680;28;20023;-88
2021/11/03 04:24:01;;;;;;;4.30;3.90;;;;;;;2.81;100.00;91472.03;2050305;28;20027;-90
2021/11/03 04:25:04;;;;;;;5.65;3.78;;;;;;;2.88;100.00;91469.22;2049947;28;20077;-88
2021/11/03 04:26:16;;;;;;;5.80;4.63;;;;;;;2.91;100.00;91467.69;2050105;28;20019;-91
2021/11/03 04:27:17;;;;;;;7.28;6.57;;;;;;;2.90;100.00;91469.59;2044883;28;20669;-88
2021/11/03 04:28:18;;;;;;;6.88;4.55;;;;;;;2.97;100.00;91464.16;2049760;28;20042;-88
2021/11/03 04:29:21;;;;;;;5.00;4.20;;;;;;;2.99;100.00;91469.78;2049856;28;20031;-90
2021/11/03 04:30:23;;;;;;;4.88;3.58;;;;;;;3.07;100.00;91464.34;2042141;28;20028;-90
2021/11/03 04:31:24;;;;;;;3.55;3.28;;;;;;;3.05;100.00;91461.38;2050128;28;20465;-89
2021/11/03 04:32:25;;;;;;;3.63;3.20;;;;;;;2.97;100.00;91461.50;2041940;28;20027;-89
2021/11/03 04:33:27;;;;;;;4.65;3.25;;;;;;;2.95;100.00;91455.91;2041827;29;20114;-90
2021/11/03 04:34:28;;;;;;;3.92;3.22;;;;;;;2.96;100.00;91459.28;2057791;28;20019;-88
2021/11/03 04:35:29;;;;;;;5.15;3.45;;;;;;;2.94;100.00;91456.28;2065659;28;20030;-91
2021/11/03 04:36:30;;;;;;;4.18;3.33;;;;;;;2.98;100.00;91460.34;2058401;28;20027;-91
2021/11/03 04:37:31;;;;;;;3.63;3.33;;;;;;;3.04;100.00;91452.72;2041802;29;20546;-89
2021/11/03 04:38:32;;;;;;;3.40;3.10;;;;;;;2.99;100.00;91447.91;2054942;28;20019;-91
2021/11/03 04:39:36;;;;;;;3.60;2.88;;;;;;;2.91;100.00;91457.13;2057947;28;20022;-89
2021/11/03 04:40:37;;;;;;;4.45;3.20;;;;;;;2.93;100.00;91442.34;2050556;28;20043;-89
2021/11/03 04:41:39;;;;;;;4.95;3.63;;;;;;;3.01;100.00;91433.16;2065511;28;20113;-88
2021/11/03 04:42:40;;;;;;;5.03;3.40;;;;;;;3.07;100.00;91437.94;2057304;28;20045;-87
2021/11/03 04:43:41;;;;;;;4.55;3.40;;;;;;;3.02;100.00;91439.16;2040403;29;20043;-90
2021/11/03 04:44:42;;;;;;;3.42;3.13;;;;;;;2.98;100.00;91427.94;2041292;28;20477;-90
2021/11/03 04:45:43;;;;;;;3.65;3.35;;;;;;;2.95;100.00;91421.59;2044182;28;20077;-91
2021/11/03 04:46:44;;;;;;;6.05;3.90;;;;;;;2.99;100.00;91422.28;2065833;28;20022;-88
2021/11/03 04:47:46;;;;;;;4.15;3.50;;;;;;;2.91;100.00;91412.28;2057619;28;20480;-87
2021/11/03 04:48:48;;;;;;;4.45;3.60;;;;;;;2.90;100.00;91416.06;2049699;28;20089;-90
2021/11/03 04:49:49;;;;;;;5.18;3.25;;;;;;;2.89;100.00;91410.03;2057709;28;20065;-89
2021/11/03 04:50:50;;;;;;;4.32;3.92;;;;;;;2.89;100.00;91415.28;2049606;28;20575;-91
2021/11/03 04:51:51;;;;;;;4.32;3.90;;;;;;;3.00;100.00;91413.19;2049835;28;20020;-89
2021/11/03 04:52:52;;;;;;;5.10;4.20;;;;;;;3.14;100.00;91411.41;2057464;28;20019;-89
2021/11/03 04:53:54;;;;;;;4.70;3.55;;;;;;;3.09;100.00;91419.81;2057505;28;20027;-88
2021/11/03 04:54:56;;;;;;;4.53;3.38;;;;;;;2.95;100.00;91416.31;2057627;28;20054;-89